createdAt,value
2023-04-08T00:00:31.978Z,9.40
2023-04-08T00:08:37.434Z,9.20
2023-04-08T00:16:45.805Z,9.00
2023-04-08T00:24:51.388Z,9.30
2023-04-08T00:32:59.517Z,9.40
2023-04-08T00:41:05.077Z,9.50
2023-04-08T00:49:13.222Z,9.60
2023-04-08T00:57:18.770Z,9.20
2023-04-08T01:05:32.056Z,9.40
2023-04-08T01:13:42.805Z,9.60
2023-04-08T01:21:51.559Z,9.70
2023-04-08T01:30:01.843Z,9.70
2023-04-08T01:38:11.982Z,9.80
2023-04-08T01:46:20.667Z,9.60
2023-04-08T01:54:26.183Z,9.30
2023-04-08T02:02:36.522Z,9.40
2023-04-08T02:10:42.289Z,9.60
2023-04-08T02:18:57.976Z,9.70
2023-04-08T02:27:05.506Z,9.70
2023-04-08T02:35:15.906Z,9.80
2023-04-08T02:43:21.554Z,9.50
2023-04-08T02:51:29.727Z,9.60
2023-04-08T02:59:39.274Z,9.60
2023-04-08T03:07:47.347Z,9.90
2023-04-08T03:15:52.800Z,9.30
2023-04-08T03:24:01.071Z,9.40
2023-04-08T03:32:06.630Z,9.50
2023-04-08T03:40:16.165Z,9.70
2023-04-08T03:48:21.648Z,9.80
2023-04-08T03:56:29.831Z,9.80
2023-04-08T04:04:37.206Z,9.70
2023-04-08T04:12:45.269Z,9.70
2023-04-08T04:20:50.749Z,9.80
2023-04-08T04:28:58.836Z,10.00
2023-04-08T04:37:04.347Z,10.20
2023-04-08T04:45:13.645Z,10.40
2023-04-08T04:53:19.139Z,10.60
2023-04-08T05:01:27.323Z,10.60
2023-04-08T05:09:33.182Z,10.90
2023-04-08T05:17:41.569Z,10.90
2023-04-08T05:25:47.087Z,10.80
2023-04-08T05:33:55.201Z,10.90
2023-04-08T05:42:00.684Z,10.90
2023-04-08T05:50:10.085Z,11.00
2023-04-08T05:58:16.213Z,11.50
2023-04-08T06:06:25.658Z,12.20
2023-04-08T06:14:31.155Z,12.40
2023-04-08T06:22:39.281Z,12.50
2023-04-08T06:30:44.740Z,12.90
2023-04-08T06:38:52.826Z,12.60
2023-04-08T06:46:58.351Z,12.60
2023-04-08T06:55:06.531Z,13.10
2023-04-08T07:03:12.397Z,13.00
2023-04-08T07:11:21.367Z,13.10
2023-04-08T07:19:27.301Z,12.80
2023-04-08T07:27:36.847Z,13.90
2023-04-08T07:35:42.708Z,14.40
2023-04-08T07:43:50.901Z,14.70
2023-04-08T07:51:56.340Z,15.20
2023-04-08T08:00:05.104Z,15.80
2023-04-08T08:08:18.648Z,15.20
2023-04-08T08:16:27.761Z,14.50
2023-04-08T08:24:33.211Z,14.00
2023-04-08T08:32:41.360Z,12.70
2023-04-08T08:40:47.032Z,13.20
2023-04-08T08:48:55.172Z,12.50
2023-04-08T08:57:00.762Z,12.90
2023-04-08T09:05:09.566Z,12.60
2023-04-08T09:13:15.215Z,12.90
2023-04-08T09:21:27.651Z,13.10
2023-04-08T09:29:36.443Z,13.70
2023-04-08T09:37:46.775Z,14.00
2023-04-08T09:45:53.495Z,13.70
2023-04-08T09:54:06.640Z,12.60
2023-04-08T10:02:14.763Z,13.80
2023-04-08T10:10:23.251Z,14.20
2023-04-08T10:18:36.901Z,14.70
2023-04-08T10:26:45.582Z,15.20
2023-04-08T10:34:58.258Z,16.40
2023-04-08T10:43:06.686Z,16.00
2023-04-08T10:51:12.369Z,14.90
2023-04-08T10:59:32.275Z,14.70
2023-04-08T11:07:44.539Z,17.00
2023-04-08T11:15:53.678Z,18.10
2023-04-08T11:23:59.419Z,23.70
2023-04-08T11:32:09.249Z,26.40
2023-04-08T11:40:16.398Z,28.10
2023-04-08T11:48:24.459Z,28.20
2023-04-08T11:56:30.821Z,26.40
2023-04-08T12:04:39.574Z,24.20
2023-04-08T12:12:45.303Z,22.00
2023-04-08T12:20:53.466Z,18.70
2023-04-08T12:28:58.993Z,17.60
2023-04-08T12:37:07.072Z,17.60
2023-04-08T12:45:12.844Z,16.10
2023-04-08T12:53:20.972Z,16.00
2023-04-08T13:01:26.563Z,16.10
2023-04-08T13:09:35.183Z,17.00
2023-04-08T13:17:40.762Z,17.30
2023-04-08T13:25:48.957Z,15.90
2023-04-08T13:33:57.642Z,15.90
2023-04-08T13:42:06.176Z,16.70
2023-04-08T13:50:13.420Z,16.60
2023-04-08T13:58:24.240Z,15.80
2023-04-08T14:06:30.194Z,15.30
2023-04-08T14:14:38.215Z,14.70
2023-04-08T14:22:43.705Z,15.60
2023-04-08T14:30:53.107Z,15.30
2023-04-08T14:38:58.956Z,14.60
2023-04-08T14:47:07.061Z,14.40
2023-04-08T14:55:13.165Z,14.40
2023-04-08T15:03:23.044Z,15.30
2023-04-08T15:11:34.631Z,14.50
2023-04-08T15:19:42.799Z,15.30
2023-04-08T15:27:49.028Z,15.10
2023-04-08T15:35:57.666Z,14.00
2023-04-08T15:44:04.144Z,14.60
2023-04-08T15:52:12.561Z,15.40
2023-04-08T16:00:18.849Z,15.30
2023-04-08T16:08:27.337Z,14.60
2023-04-08T16:16:33.477Z,14.20
2023-04-08T16:24:53.729Z,14.20
2023-04-08T16:32:59.227Z,14.10
2023-04-08T16:41:10.317Z,14.50
2023-04-08T16:49:18.147Z,14.80
2023-04-08T16:57:26.639Z,15.10
2023-04-08T17:05:32.209Z,14.90
2023-04-08T17:13:40.832Z,14.90
2023-04-08T17:21:46.534Z,15.00
2023-04-08T17:29:57.874Z,14.70
2023-04-08T17:38:03.523Z,14.70
2023-04-08T17:46:12.218Z,14.70
2023-04-08T17:54:17.980Z,14.60
2023-04-08T18:02:27.803Z,14.60
2023-04-08T18:10:33.461Z,14.40
2023-04-08T18:18:42.903Z,14.10
2023-04-08T18:26:54.263Z,14.10
2023-04-08T18:35:06.242Z,14.30
2023-04-08T18:43:12.279Z,14.30
2023-04-08T18:51:20.394Z,14.30
2023-04-08T18:59:28.039Z,14.20
2023-04-08T19:07:36.075Z,13.90
2023-04-08T19:15:41.607Z,14.00
2023-04-08T19:23:50.074Z,13.90
2023-04-08T19:31:57.230Z,13.20
2023-04-08T19:40:05.258Z,13.70
2023-04-08T19:48:10.692Z,13.70
2023-04-08T19:56:18.725Z,13.80
2023-04-08T20:04:24.288Z,13.70
2023-04-08T20:12:33.244Z,13.90
2023-04-08T20:20:38.737Z,13.80
2023-04-08T20:28:48.343Z,13.60
2023-04-08T20:36:54.040Z,13.70
2023-04-08T20:45:02.100Z,13.70
2023-04-08T20:53:07.604Z,13.50
2023-04-08T21:01:16.085Z,13.20
2023-04-08T21:09:21.616Z,13.50
2023-04-08T21:17:31.448Z,13.30
2023-04-08T21:25:36.955Z,13.40
2023-04-08T21:33:45.070Z,13.70
2023-04-08T21:41:50.527Z,13.60
2023-04-08T21:49:58.875Z,13.50
2023-04-08T21:58:04.329Z,13.40
2023-04-08T22:06:19.328Z,13.50
2023-04-08T22:14:35.134Z,13.40
2023-04-08T22:22:43.115Z,13.30
2023-04-08T22:30:48.692Z,13.30
2023-04-08T22:38:57.042Z,13.30
2023-04-08T22:47:02.549Z,13.40
2023-04-08T22:55:11.590Z,13.30
2023-04-08T23:03:17.082Z,13.10
2023-04-08T23:11:25.175Z,13.30
2023-04-08T23:19:30.672Z,13.10
2023-04-08T23:27:38.951Z,13.00
2023-04-08T23:35:45.102Z,13.00
2023-04-08T23:43:53.276Z,13.10
2023-04-08T23:51:58.880Z,13.10
